KCUH/CUH METAR and TAF weather

Enter ICAO airport designator
Station Type Date Time Source
KCUH METAR 2018/12/12 23:15 UTC NOAA

KCUH 122315Z AUTO 14006KT 10SM CLR 11/07 A2978 RMK AO2 T01130070


Station Type Date Time Source
KCUH Decoded METAR 2018/12/12 23:15 UTC NOAA

Cushing, Cushing Municipal Airport, OK, United States (KCUH) 35-56-59N 096-46-22W
Dec 12, 2018 - 06:15 PM EST / 2018.12.12 2315 UTC
Wind: from the SE (140 degrees) at 7 MPH (6 KT):0
Visibility: 10 mile(s):0
Sky conditions: clear
Temperature: 52.3 F (11.3 C)
Dew Point: 44.6 F (7.0 C)
Relative Humidity: 74%
Pressure (altimeter): 29.78 in. Hg (1008 hPa)
ob: KCUH 122315Z AUTO 14006KT 10SM CLR 11/07 A2978 RMK AO2 T01130070
cycle: 23

Station Type Date Time Source
KCUH TAF UTC NOAA

Error!


Example: see airport list